Time;durP1;ratioP1;P1;durP2;ratioP2;P2;SDS_P1;SDS_P2;PMS_P1;PMS_P2;Temp;Humidity;BMP_temperature;BMP_pressure;BME280_temperature;BME280_humidity;BME280_pressure;Samples;Min_cycle;Max_cycle;Signal;HPM_P1;HPM_P2
2022/08/22 00:07:42;;;;;;;13.78;4.53;;;;;;;20.18;72.13;100354.02;1798278;79;22670;-91
2022/08/22 00:10:27;;;;;;;16.27;5.00;;;;;;;20.12;72.10;100357.83;1696344;83;20983;-90
2022/08/22 00:13:04;;;;;;;14.83;4.53;;;;;;;20.09;71.76;100357.15;1696420;83;21217;-91
2022/08/22 00:15:35;;;;;;;18.55;5.47;;;;;;;20.05;71.48;100353.64;1696526;84;21782;-90
2022/08/22 00:18:16;;;;;;;12.58;4.83;;;;;;;20.05;71.15;100357.63;1696007;83;20859;-91
2022/08/22 00:21:06;;;;;;;18.45;4.47;;;;;;;20.04;71.06;100366.13;1696475;84;20993;-92
2022/08/22 00:23:44;;;;;;;13.08;4.92;;;;;;;20.02;71.16;100360.62;1695285;84;20927;-91
2022/08/22 00:26:32;;;;;;;21.45;4.72;;;;;;;20.02;71.23;100364.62;1698394;81;21097;-89
2022/08/22 00:29:07;;;;;;;12.25;4.55;;;;;;;20.02;71.48;100365.45;1698362;84;20986;-88
2022/08/22 00:32:02;;;;;;;13.38;4.78;;;;;;;20.00;71.61;100366.10;1696556;84;21366;-90
2022/08/22 00:34:51;;;;;;;13.10;5.37;;;;;;;20.00;71.93;100365.27;1696287;84;20943;-91
2022/08/22 00:37:29;;;;;;;12.50;5.10;;;;;;;19.99;72.30;100365.78;1696439;84;21061;-90
2022/08/22 00:40:14;;;;;;;11.97;4.90;;;;;;;19.97;72.59;100362.94;1696225;83;21875;-91
2022/08/22 00:43:21;;;;;;;11.65;5.03;;;;;;;19.94;72.82;100368.06;1695586;83;20943;-90
2022/08/22 00:46:19;;;;;;;16.50;5.35;;;;;;;19.92;73.01;100370.55;1696183;84;20990;-92
2022/08/22 00:49:17;;;;;;;15.93;4.50;;;;;;;19.88;72.88;100371.38;1673579;84;20936;-92
2022/08/22 00:52:09;;;;;;;29.37;6.45;;;;;;;19.87;71.61;100364.38;1696389;84;21021;-92
2022/08/22 00:55:13;;;;;;;18.10;4.92;;;;;;;19.88;71.12;100373.54;1696910;84;21849;-91
2022/08/22 00:58:15;;;;;;;19.98;5.03;;;;;;;19.91;72.28;100368.39;1697730;84;20887;-90
2022/08/22 01:00:46;;;;;;;13.58;4.92;;;;;;;19.92;72.68;100371.41;1680865;83;20939;-91
2022/08/22 01:03:45;;;;;;;23.27;5.75;;;;;;;19.92;72.96;100366.08;1696245;83;21353;-90
2022/08/22 01:06:46;;;;;;;39.55;7.60;;;;;;;19.93;70.67;100366.91;1691008;84;20892;-91
2022/08/22 01:09:57;;;;;;;35.23;7.75;;;;;;;19.97;64.39;100366.43;1745411;81;21267;-90
2022/08/22 01:12:54;;;;;;;32.67;7.92;;;;;;;20.09;63.16;100362.98;1745764;81;20858;-91
2022/08/22 01:15:28;;;;;;;17.30;7.45;;;;;;;20.20;63.30;100365.35;1745518;81;20972;-92
2022/08/22 01:18:46;;;;;;;34.00;9.00;;;;;;;20.30;63.63;100362.58;1745693;81;20861;-93
2022/08/22 01:21:43;;;;;;;32.50;9.98;;;;;;;20.39;65.86;100367.43;1745246;81;20877;-91
2022/08/22 01:25:16;;;;;;;27.37;9.00;;;;;;;20.43;66.61;100367.41;1745259;80;21901;-92
2022/08/22 01:27:40;;;;;;;35.50;9.73;;;;;;;20.43;66.64;100365.61;1743343;81;20976;-93
2022/08/22 01:30:27;;;;;;;33.05;10.55;;;;;;;20.42;66.34;100376.42;1741229;81;20991;-91
2022/08/22 01:33:50;;;;;;;36.05;9.40;;;;;;;20.39;66.58;100369.59;1745099;78;20904;-92
2022/08/22 01:36:33;;;;;;;43.17;10.25;;;;;;;20.37;66.57;100376.08;1745684;81;20877;-91
2022/08/22 01:39:22;;;;;;;38.58;12.58;;;;;;;20.33;66.66;100376.06;1745687;81;20976;-91
2022/08/22 01:42:27;;;;;;;34.90;10.80;;;;;;;20.29;66.52;100375.53;1745499;81;20889;-93
2022/08/22 01:45:27;;;;;;;36.55;10.48;;;;;;;20.26;66.59;100382.53;1744619;81;21031;-92
2022/08/22 01:48:05;;;;;;;29.52;8.85;;;;;;;20.25;66.84;100377.70;1745567;80;20932;-92
2022/08/22 01:50:57;;;;;;;34.27;10.00;;;;;;;20.24;66.40;100382.67;1745357;81;21371;-91
2022/08/22 01:53:36;;;;;;;51.80;13.03;;;;;;;20.25;66.75;100390.16;1734588;82;21249;-92
2022/08/22 01:56:14;;;;;;;38.10;11.28;;;;;;;20.25;65.01;100376.84;1728911;81;20861;-91
2022/08/22 01:59:01;;;;;;;46.75;10.00;;;;;;;20.26;62.04;100386.02;1744954;81;20917;-92
2022/08/22 02:01:56;;;;;;;51.15;10.35;;;;;;;20.31;61.75;100388.70;1744863;81;20971;-94
2022/08/22 02:04:51;;;;;;;53.78;11.48;;;;;;;20.36;58.97;100383.72;1745245;82;20861;-94
2022/08/22 02:08:04;;;;;;;55.55;12.60;;;;;;;20.44;57.37;100383.75;1747217;78;21250;-93
2022/08/22 02:10:47;;;;;;;44.15;9.18;;;;;;;20.51;57.10;100383.43;1744503;82;20997;-92
2022/08/22 02:13:45;;;;;;;60.55;12.23;;;;;;;20.58;56.02;100382.31;1744879;82;20966;-91
2022/08/22 02:16:17;;;;;;;52.05;10.80;;;;;;;20.63;56.07;100375.52;1744069;82;20995;-90
2022/08/22 02:19:11;;;;;;;53.23;13.00;;;;;;;20.69;54.47;100378.00;1743857;82;20938;-92
2022/08/22 02:22:22;;;;;;;64.43;11.70;;;;;;;20.74;53.30;100378.84;1743529;82;21249;-90
2022/08/22 02:25:06;;;;;;;48.05;11.65;;;;;;;20.80;52.77;100379.52;1744187;81;20930;-92
2022/08/22 02:27:53;;;;;;;54.73;13.55;;;;;;;20.85;52.50;100387.38;1744528;82;20894;-93
2022/08/22 02:30:31;;;;;;;53.52;12.88;;;;;;;20.89;52.37;100384.69;1742555;82;21021;-91
2022/08/22 02:33:06;;;;;;;53.85;12.05;;;;;;;20.91;52.20;100377.36;1737583;82;20918;-92
2022/08/22 02:35:57;;;;;;;58.25;12.45;;;;;;;20.94;51.95;100382.86;1741625;82;21179;-93
2022/08/22 02:38:41;;;;;;;62.40;12.78;;;;;;;20.96;51.35;100382.20;1742264;81;20862;-91
2022/08/22 02:41:13;;;;;;;80.45;13.70;;;;;;;20.99;51.25;100388.55;1741994;81;26531;-95
2022/08/22 02:43:54;;;;;;;66.10;13.48;;;;;;;21.01;50.64;100385.22;1717433;82;21542;-91
2022/08/22 02:46:29;;;;;;;53.63;13.20;;;;;;;21.04;50.60;100390.72;1744346;81;20972;-92
2022/08/22 02:49:10;;;;;;;59.40;12.58;;;;;;;21.05;50.57;100387.03;1745281;81;21204;-92
2022/08/22 02:52:18;;;;;;;67.55;13.90;;;;;;;21.06;50.46;100389.55;1745466;81;21020;-94
2022/08/22 02:54:49;;;;;;;60.63;14.25;;;;;;;21.07;50.32;100389.87;1745197;81;20924;-94
2022/08/22 02:57:28;;;;;;;60.90;16.85;;;;;;;21.07;49.65;100387.70;1745057;81;20925;-93
2022/08/22 03:00:17;;;;;;;69.17;14.28;;;;;;;21.08;49.97;100395.55;1745381;81;20884;-92
2022/08/22 03:03:02;;;;;;;67.05;13.32;;;;;;;21.10;49.66;100392.73;1734515;82;21153;-94
2022/08/22 03:05:40;;;;;;;65.17;13.95;;;;;;;21.11;49.49;100394.38;1745103;81;20949;-93
2022/08/22 03:08:24;;;;;;;67.82;12.70;;;;;;;21.14;49.22;100398.55;1746667;78;20933;-91
2022/08/22 03:11:17;;;;;;;57.53;11.48;;;;;;;21.14;49.31;100396.70;1747045;78;27870;-91
2022/08/22 03:14:02;;;;;;;63.65;13.28;;;;;;;21.17;49.36;100399.56;1745274;81;20936;-92
2022/08/22 03:16:34;;;;;;;53.48;11.00;;;;;;;21.18;49.15;100405.22;1718177;81;21224;-91
2022/08/22 03:19:07;;;;;;;69.17;12.47;;;;;;;21.20;49.24;100406.72;1745049;81;20893;-93
2022/08/22 03:21:45;;;;;;;57.62;11.90;;;;;;;21.21;48.81;100400.39;1745064;81;20881;-92
2022/08/22 03:24:32;;;;;;;65.22;10.72;;;;;;;21.24;48.68;100405.89;1745016;80;20968;-92
2022/08/22 03:27:22;;;;;;;55.60;9.60;;;;;;;21.26;48.87;100414.56;1745556;81;20944;-92
2022/08/22 03:29:56;;;;;;;44.20;9.03;;;;;;;21.28;48.23;100408.56;1745436;81;20945;-92
2022/08/22 03:32:33;;;;;;;62.33;10.98;;;;;;;21.30;48.20;100408.73;1734111;82;20861;-93
2022/08/22 03:35:04;;;;;;;52.20;8.20;;;;;;;21.32;48.19;100408.06;1722672;81;20920;-92
2022/08/22 03:37:42;;;;;;;53.52;10.23;;;;;;;21.36;48.51;100411.71;1745049;81;20901;-93
2022/08/22 03:40:35;;;;;;;53.85;8.58;;;;;;;21.38;48.77;100417.72;1745535;81;20991;-92
2022/08/22 03:43:39;;;;;;;53.90;9.20;;;;;;;21.40;48.70;100420.55;1745770;81;21209;-94
2022/08/22 03:46:20;;;;;;;86.05;37.20;;;;;;;21.43;49.00;100424.27;1745359;81;20913;-94
2022/08/22 03:49:40;;;;;;;56.13;10.05;;;;;;;21.45;49.26;100423.57;1745576;81;21351;-93
2022/08/22 03:52:18;;;;;;;62.05;11.22;;;;;;;21.48;50.18;100431.26;1745509;82;20900;-94
2022/08/22 03:54:55;;;;;;;64.70;9.50;;;;;;;21.50;48.91;100425.77;1745850;81;20919;-93
2022/08/22 03:57:44;;;;;;;58.95;8.80;;;;;;;21.52;48.10;100428.59;1737353;81;21170;-95
2022/08/22 04:00:21;;;;;;;48.45;8.50;;;;;;;21.56;47.88;100436.25;1745918;79;20944;-94
2022/08/22 04:03:24;;;;;;;47.73;8.15;;;;;;;21.57;48.40;100437.93;1744923;81;20968;-94
2022/08/22 04:06:28;;;;;;;43.28;7.85;;;;;;;21.59;48.04;100437.23;1746297;81;21054;-94
2022/08/22 04:09:43;;;;;;;48.92;7.08;;;;;;;21.62;48.46;100437.74;1719569;83;26423;-95
2022/08/22 04:12:22;;;;;;;49.75;7.12;;;;;;;21.67;48.09;100439.91;1720448;81;21246;-93
2022/08/22 04:15:13;;;;;;;63.70;8.98;;;;;;;21.69;48.29;100432.05;1721192;82;20975;-92
2022/08/22 04:18:01;;;;;;;52.67;8.88;;;;;;;21.75;47.44;100442.57;1719207;82;20868;-93
2022/08/22 04:21:05;;;;;;;46.45;7.12;;;;;;;21.80;47.58;100446.06;1719518;83;20939;-95
2022/08/22 04:24:15;;;;;;;51.88;7.45;;;;;;;21.86;47.74;100441.39;1719501;82;20923;-93
2022/08/22 04:27:02;;;;;;;56.08;8.55;;;;;;;21.92;46.84;100443.35;1719313;82;21225;-92
2022/08/22 04:29:46;;;;;;;52.13;9.40;;;;;;;22.02;46.48;100448.52;1691109;83;20983;-93
2022/08/22 04:32:39;;;;;;;56.37;10.65;;;;;;;22.06;46.42;100440.00;1719858;83;21406;-93
2022/08/22 04:35:37;;;;;;;49.77;7.42;;;;;;;22.12;46.47;100440.66;1719898;82;21389;-91
2022/08/22 04:38:16;;;;;;;55.55;8.58;;;;;;;22.21;45.95;100445.95;1720183;82;21410;-91
2022/08/22 04:40:51;;;;;;;56.08;9.58;;;;;;;22.27;45.74;100446.63;1719757;82;21234;-94
2022/08/22 04:44:16;;;;;;;62.03;9.83;;;;;;;22.34;45.15;100440.92;1719835;82;20899;-94
2022/08/22 04:53:33;;;;;;;53.95;7.28;;;;;;;22.55;44.24;100450.52;1737006;79;20939;-90
2022/08/22 04:56:24;;;;;;;53.70;9.05;;;;;;;22.68;43.97;100462.00;1737181;81;21165;-92
2022/08/22 04:59:02;;;;;;;51.95;8.20;;;;;;;22.81;43.49;100449.88;1692685;81;20919;-91
2022/08/22 05:01:53;;;;;;;59.42;8.48;;;;;;;22.91;43.52;100449.98;1739952;80;20921;-92
2022/08/22 05:04:34;;;;;;;60.70;8.80;;;;;;;23.04;43.10;100453.97;1670407;85;20887;-90
2022/08/22 05:07:18;;;;;;;57.27;9.10;;;;;;;23.16;42.29;100450.67;1670580;86;21105;-92
2022/08/22 05:09:55;;;;;;;50.67;8.18;;;;;;;23.28;42.41;100452.45;1648449;86;21244;-91
2022/08/22 05:12:28;;;;;;;44.05;8.20;;;;;;;23.44;42.20;100457.34;1670661;86;20928;-91
2022/08/22 05:24:19;;;;;;;46.98;7.58;;;;;;;24.32;40.35;100448.61;1687956;81;21728;-93
2022/08/22 05:38:32;;;;;;;43.25;7.20;;;;;;;25.32;38.51;100442.20;1518178;89;21181;-94
2022/08/22 05:41:11;;;;;;;43.02;7.25;;;;;;;25.51;38.47;100440.20;1593849;86;20942;-94
2022/08/22 05:43:41;;;;;;;42.05;7.60;;;;;;;25.72;37.94;100439.83;1626785;88;21045;-93
2022/08/22 05:46:40;;;;;;;48.25;9.28;;;;;;;25.89;37.34;100441.23;1602805;86;20951;-93
2022/08/22 05:49:42;;;;;;;50.78;8.90;;;;;;;26.01;37.45;100442.35;1592214;85;20881;-93
2022/08/22 05:52:26;;;;;;;46.15;7.90;;;;;;;26.16;36.91;100445.42;1585369;87;21148;-92
2022/08/22 05:55:18;;;;;;;47.93;6.45;;;;;;;26.31;37.32;100443.43;1560803;87;21082;-94
2022/08/22 05:57:59;;;;;;;41.45;6.60;;;;;;;26.50;36.59;100451.25;1576948;87;20930;-93
2022/08/22 06:03:37;;;;;;;29.55;6.45;;;;;;;26.69;36.32;100449.71;1613408;86;20923;-91
2022/08/22 06:06:14;;;;;;;47.55;7.65;;;;;;;26.75;36.24;100452.94;1640404;87;21093;-89
2022/08/22 06:08:57;;;;;;;44.25;7.78;;;;;;;26.88;35.71;100452.16;1648497;85;20978;-88
2022/08/22 06:11:32;;;;;;;53.05;9.23;;;;;;;27.03;35.86;100454.13;1689018;85;21487;-90
2022/08/22 06:14:13;;;;;;;55.95;12.18;;;;;;;27.25;35.84;100455.34;1696014;82;20926;-92
2022/08/22 06:16:49;;;;;;;41.68;10.88;;;;;;;27.49;35.46;100460.12;1744706;82;20856;-92
2022/08/22 06:19:16;;;;;;;60.80;20.40;;;;;;;27.72;35.29;100458.03;1745232;82;22004;-90
2022/08/22 06:21:46;;;;;;;36.20;8.30;;;;;;;27.94;35.54;100454.62;1745556;82;20998;-91
2022/08/22 06:24:22;;;;;;;34.78;6.62;;;;;;;28.22;34.98;100448.95;1720884;82;21468;-89
2022/08/22 06:26:51;;;;;;;33.98;6.70;;;;;;;28.47;34.88;100453.96;1744433;82;20939;-92
2022/08/22 06:29:30;;;;;;;47.65;9.25;;;;;;;28.70;34.45;100461.55;1745450;82;20923;-91
2022/08/22 06:31:57;;;;;;;36.60;7.60;;;;;;;28.88;33.96;100455.93;1745258;82;21279;-93
2022/08/22 06:34:27;;;;;;;40.85;6.85;;;;;;;28.93;33.46;100465.05;1745924;82;20949;-92
2022/08/22 06:36:55;;;;;;;39.05;8.58;;;;;;;28.97;33.27;100464.10;1746714;81;20943;-92
2022/08/22 06:39:28;;;;;;;34.13;6.42;;;;;;;29.02;33.47;100459.40;1747796;82;20963;-91
2022/08/22 06:42:12;;;;;;;33.20;7.50;;;;;;;29.14;32.92;100469.30;1723137;79;20912;-91
2022/08/22 06:45:03;;;;;;;47.45;7.42;;;;;;;29.22;32.57;100465.52;1750607;79;21140;-91
2022/08/22 06:47:40;;;;;;;38.00;7.53;;;;;;;29.37;32.98;100470.61;1745212;82;20907;-93
2022/08/22 06:50:13;;;;;;;32.53;6.03;;;;;;;29.61;32.29;100466.23;1725824;82;20932;-90
2022/08/22 06:53:17;;;;;;;35.68;5.50;;;;;;;29.77;31.92;100471.66;1746738;82;20951;-92
2022/08/22 06:55:56;;;;;;;39.92;5.42;;;;;;;29.81;31.82;100472.02;1746688;81;20944;-92
2022/08/22 06:58:39;;;;;;;24.85;4.62;;;;;;;29.93;31.83;100478.36;1745643;81;21888;-91
2022/08/22 07:01:19;;;;;;;38.60;5.80;;;;;;;30.09;31.67;100463.42;1745495;81;20979;-93
2022/08/22 07:03:51;;;;;;;36.42;5.62;;;;;;;30.25;31.94;100472.28;1747007;81;20899;-94
2022/08/22 07:06:38;;;;;;;39.78;5.80;;;;;;;30.36;30.76;100459.91;1723374;82;21411;-92
2022/08/22 07:09:04;;;;;;;29.90;5.12;;;;;;;30.38;31.04;100472.69;1747818;82;20988;-90
2022/08/22 07:11:38;;;;;;;42.50;6.42;;;;;;;30.41;30.96;100462.75;1722615;82;21859;-90
2022/08/22 07:14:11;;;;;;;32.42;5.65;;;;;;;30.49;30.58;100464.34;1747604;82;20968;-90
2022/08/22 07:16:49;;;;;;;45.35;7.47;;;;;;;30.58;30.87;100469.73;1748237;82;20894;-93
2022/08/22 07:19:29;;;;;;;34.03;5.40;;;;;;;30.74;30.55;100466.38;1723021;82;21652;-90
2022/08/22 07:21:56;;;;;;;35.17;5.28;;;;;;;30.92;30.48;100465.54;1746377;82;20977;-91
2022/08/22 07:24:29;;;;;;;29.87;4.78;;;;;;;31.11;30.31;100471.73;1748118;82;21871;-88
2022/08/22 07:27:36;;;;;;;32.55;4.90;;;;;;;31.26;30.49;100472.66;1747931;82;20929;-92
2022/08/22 07:30:10;;;;;;;30.77;4.87;;;;;;;31.52;29.67;100482.26;1748643;81;21059;-91
2022/08/22 07:32:54;;;;;;;35.03;6.35;;;;;;;31.53;29.80;100477.15;1748551;82;21383;-92
2022/08/22 07:35:28;;;;;;;34.08;4.78;;;;;;;31.48;29.47;100475.68;1728017;83;20870;-92
2022/08/22 07:38:03;;;;;;;26.52;6.10;;;;;;;31.37;29.84;100479.98;1748279;82;21154;-93
2022/08/22 07:40:54;;;;;;;19.70;4.80;;;;;;;31.19;29.68;100481.40;1748879;80;20969;-93
2022/08/22 07:43:34;;;;;;;30.35;4.55;;;;;;;30.96;30.61;100469.98;1750595;80;20933;-92
2022/08/22 07:46:12;;;;;;;35.63;5.97;;;;;;;31.02;30.84;100475.02;1750250;82;20941;-92
2022/08/22 07:49:00;;;;;;;28.10;5.55;;;;;;;31.19;30.28;100482.25;1729668;81;21494;-92
2022/08/22 07:51:35;;;;;;;33.63;4.17;;;;;;;31.17;30.09;100477.59;1748463;82;21077;-91
2022/08/22 07:54:07;;;;;;;32.75;4.75;;;;;;;31.05;30.64;100482.67;1749778;82;20949;-91
2022/08/22 07:56:42;;;;;;;27.25;4.60;;;;;;;31.05;30.60;100482.13;1749573;82;20952;-92
2022/08/22 07:59:13;;;;;;;32.80;5.53;;;;;;;31.19;30.67;100476.83;1748734;82;21013;-92
2022/08/22 08:01:50;;;;;;;26.10;4.75;;;;;;;31.40;30.02;100480.05;1748436;82;20929;-92
2022/08/22 08:04:26;;;;;;;22.48;4.53;;;;;;;31.47;30.13;100482.68;1751435;82;21068;-91
2022/08/22 08:06:58;;;;;;;24.12;3.92;;;;;;;31.39;30.26;100480.58;1753152;82;21233;-92
2022/08/22 08:09:29;;;;;;;21.68;4.65;;;;;;;31.46;29.67;100483.22;1750623;82;20937;-95
2022/08/22 08:11:56;;;;;;;33.83;5.55;;;;;;;31.49;30.11;100490.87;1753655;82;20945;-92
2022/08/22 08:14:24;;;;;;;26.87;4.42;;;;;;;31.45;29.89;100486.16;1753182;81;20976;-93
2022/08/22 08:17:05;;;;;;;26.68;5.28;;;;;;;31.37;29.83;100490.83;1752626;82;21155;-92
2022/08/22 08:19:34;;;;;;;31.02;5.08;;;;;;;31.39;30.07;100496.84;1752556;81;21163;-90
2022/08/22 08:22:01;;;;;;;31.62;5.17;;;;;;;31.47;29.75;100489.45;1752833;82;20893;-91
2022/08/22 08:24:31;;;;;;;26.40;5.00;;;;;;;31.54;29.72;100491.52;1752585;82;20944;-94
2022/08/22 08:29:55;;;;;;;19.05;4.40;;;;;;;31.93;29.11;100491.91;1753107;82;21238;-92
2022/08/22 08:32:22;;;;;;;26.27;5.62;;;;;;;32.02;29.23;100495.94;1753872;82;20933;-92
2022/08/22 08:34:50;;;;;;;24.95;4.60;;;;;;;32.07;28.63;100492.51;1727607;82;21071;-91
2022/08/22 08:37:26;;;;;;;27.40;4.80;;;;;;;32.11;28.66;100488.27;1754192;82;20873;-91
2022/08/22 08:39:57;;;;;;;34.78;4.78;;;;;;;32.11;28.74;100490.98;1729728;81;21004;-94
2022/08/22 08:46:06;;;;;;;24.12;4.67;;;;;;;31.71;29.69;100485.70;1735187;82;21006;-92
2022/08/22 08:49:12;;;;;;;22.35;4.28;;;;;;;31.72;29.28;100482.45;1699378;81;21012;-93
2022/08/22 08:52:22;;;;;;;28.70;4.20;;;;;;;31.68;29.27;100474.49;1753282;82;20865;-93
2022/08/22 08:55:23;;;;;;;23.75;3.83;;;;;;;31.59;29.41;100485.70;1753588;82;20862;-93
2022/08/22 08:58:10;;;;;;;25.48;5.00;;;;;;;31.42;30.19;100482.56;1753152;82;21125;-92
2022/08/22 09:01:01;;;;;;;25.55;4.47;;;;;;;31.25;30.76;100476.41;1752338;81;20905;-92
2022/08/22 09:04:02;;;;;;;30.57;5.05;;;;;;;31.03;30.97;100473.95;1747017;81;20896;-91
2022/08/22 09:07:03;;;;;;;21.35;4.10;;;;;;;30.75;31.05;100477.53;1728228;82;20888;-93
2022/08/22 09:09:55;;;;;;;25.25;5.75;;;;;;;30.41;31.64;100487.11;1727683;83;20888;-92
2022/08/22 09:12:59;;;;;;;36.10;4.87;;;;;;;30.13;32.43;100475.45;1727451;83;21200;-93
2022/08/22 09:15:49;;;;;;;28.20;3.83;;;;;;;29.97;32.90;100471.46;1727410;82;20931;-92
2022/08/22 09:18:41;;;;;;;27.95;3.85;;;;;;;29.82;32.74;100463.70;1728226;83;20912;-89
2022/08/22 09:21:22;;;;;;;34.48;5.20;;;;;;;29.70;33.53;100459.55;1727723;83;20889;-92
2022/08/22 09:24:09;;;;;;;28.20;5.22;;;;;;;29.79;33.66;100464.12;1727792;82;20900;-91
2022/08/22 09:26:56;;;;;;;25.77;4.08;;;;;;;30.05;33.10;100460.86;1727678;82;21360;-93
2022/08/22 09:29:43;;;;;;;26.65;3.87;;;;;;;30.42;32.55;100458.19;1727769;82;20860;-93
2022/08/22 09:32:23;;;;;;;25.75;4.50;;;;;;;30.74;32.21;100462.33;1727800;82;20943;-92
2022/08/22 09:35:04;;;;;;;22.07;3.67;;;;;;;31.12;31.82;100460.36;1727665;82;21041;-91
2022/08/22 09:37:36;;;;;;;21.37;3.60;;;;;;;31.50;31.55;100465.94;1727575;82;20888;-92
2022/08/22 09:40:14;;;;;;;22.17;3.20;;;;;;;31.74;31.10;100455.93;1727812;82;21814;-93
2022/08/22 09:43:22;;;;;;;24.63;3.90;;;;;;;32.00;30.95;100455.47;1727592;83;20852;-94
2022/08/22 09:46:16;;;;;;;20.92;3.27;;;;;;;32.40;31.00;100453.31;1726501;82;20887;-92
2022/08/22 09:49:24;;;;;;;15.40;5.30;;;;;;;32.89;30.34;100446.67;1727627;82;20978;-91
2022/08/22 09:52:09;;;;;;;11.75;3.55;;;;;;;33.28;29.89;100453.59;1728243;83;20915;-91
2022/08/22 09:54:47;;;;;;;23.52;3.98;;;;;;;33.59;29.25;100446.23;1727941;83;21956;-90
2022/08/22 09:57:31;;;;;;;19.95;4.62;;;;;;;33.79;29.25;100439.45;1727903;82;20967;-91
2022/08/22 10:00:21;;;;;;;20.02;3.25;;;;;;;34.10;29.04;100439.86;1727904;82;21361;-91
2022/08/22 10:03:09;;;;;;;23.12;3.90;;;;;;;34.37;28.29;100448.11;1728391;83;21011;-92
2022/08/22 10:05:56;;;;;;;16.25;2.92;;;;;;;34.60;28.38;100445.12;1703513;83;20906;-91
2022/08/22 10:08:45;;;;;;;12.82;2.55;;;;;;;34.82;27.73;100442.38;1724641;82;21794;-91
2022/08/22 10:11:23;;;;;;;17.42;3.20;;;;;;;35.00;27.61;100437.09;1724703;82;21522;-94
2022/08/22 10:14:02;;;;;;;19.15;3.02;;;;;;;35.17;27.90;100447.06;1683170;82;20867;-91
2022/08/22 10:17:10;;;;;;;21.50;3.72;;;;;;;35.22;27.41;100445.22;1718322;82;20946;-94
2022/08/22 10:19:42;;;;;;;24.23;3.77;;;;;;;35.32;26.74;100445.83;1723622;83;20860;-93
2022/08/22 10:22:24;;;;;;;17.15;3.42;;;;;;;35.38;26.28;100439.89;1724789;83;20923;-92
2022/08/22 10:25:29;;;;;;;16.32;2.98;;;;;;;35.42;26.31;100439.65;1724853;83;20879;-92
2022/08/22 10:28:22;;;;;;;13.38;3.10;;;;;;;35.54;26.09;100440.81;1725661;83;20898;-92
2022/08/22 10:31:22;;;;;;;14.20;2.85;;;;;;;35.78;25.74;100428.98;1727385;83;20938;-92
2022/08/22 10:34:07;;;;;;;21.10;3.00;;;;;;;36.06;25.66;100429.10;1726917;82;20914;-90
2022/08/22 10:37:10;;;;;;;30.48;4.20;;;;;;;36.30;24.95;100433.05;1727185;83;21162;-90
2022/08/22 10:39:45;;;;;;;17.75;3.60;;;;;;;36.45;23.83;100428.73;1726462;83;20970;-90
2022/08/22 10:42:23;;;;;;;23.98;4.05;;;;;;;36.54;23.27;100438.05;1726310;83;20926;-94
2022/08/22 10:45:17;;;;;;;20.70;4.22;;;;;;;36.62;23.50;100438.08;1699721;83;20946;-87
2022/08/22 10:48:08;;;;;;;20.02;4.72;;;;;;;36.70;22.62;100447.12;1726943;83;21029;-91
2022/08/22 10:50:46;;;;;;;21.48;4.28;;;;;;;36.64;22.12;100436.74;1726015;83;21109;-92
2022/08/22 10:53:34;;;;;;;29.30;5.03;;;;;;;36.68;22.09;100435.08;1725702;83;21043;-93
2022/08/22 10:56:24;;;;;;;34.60;4.87;;;;;;;36.65;21.07;100428.80;1704575;83;20923;-94
2022/08/22 10:59:06;;;;;;;19.62;4.72;;;;;;;36.41;21.27;100435.82;1662342;86;21394;-91
2022/08/22 11:01:36;;;;;;;24.57;5.05;;;;;;;36.25;21.74;100426.77;1663088;86;20960;-92
2022/08/22 11:04:34;;;;;;;25.77;5.15;;;;;;;36.31;22.17;100433.89;1642132;86;21241;-90
2022/08/22 11:07:43;;;;;;;28.98;4.80;;;;;;;36.36;22.10;100416.70;1663875;84;20876;-91
2022/08/22 11:10:31;;;;;;;21.95;4.62;;;;;;;36.36;20.68;100416.14;1663843;85;20956;-92
2022/08/22 11:13:29;;;;;;;20.62;4.45;;;;;;;36.29;21.10;100423.22;1663274;85;21059;-90
2022/08/22 11:16:07;;;;;;;15.15;3.70;;;;;;;36.21;20.95;100424.28;1663903;85;20971;-92
2022/08/22 11:18:55;;;;;;;29.18;4.08;;;;;;;36.19;20.69;100409.52;1663305;86;21264;-92
2022/08/22 11:21:48;;;;;;;21.60;3.55;;;;;;;36.19;20.45;100412.80;1663390;85;20924;-92
2022/08/22 11:24:55;;;;;;;23.57;3.45;;;;;;;36.17;20.96;100407.61;1664091;83;21043;-95
2022/08/22 11:27:55;;;;;;;22.45;3.85;;;;;;;36.23;21.15;100416.09;1662601;85;20994;-92
2022/08/22 11:30:42;;;;;;;15.05;3.10;;;;;;;36.29;20.95;100413.66;1661857;86;20936;-92
2022/08/22 11:33:39;;;;;;;23.77;4.70;;;;;;;36.27;20.98;100402.19;1662077;85;22352;-91
2022/08/22 11:36:24;;;;;;;25.60;4.95;;;;;;;36.34;21.56;100405.22;1687700;83;21041;-93
2022/08/22 11:39:34;;;;;;;17.65;4.25;;;;;;;36.50;21.10;100412.34;1708976;83;20935;-94
2022/08/22 11:42:15;;;;;;;27.65;4.65;;;;;;;36.48;20.33;100410.42;1725744;82;20903;-94
2022/08/22 11:44:48;;;;;;;26.27;3.80;;;;;;;36.22;20.74;100395.88;1725520;82;20886;-95
2022/08/22 11:47:17;;;;;;;29.12;3.72;;;;;;;36.11;21.25;100412.77;1722893;83;22993;-93
2022/08/22 11:50:04;;;;;;;19.82;3.98;;;;;;;36.04;21.38;100406.70;1726120;82;20954;-94
2022/08/22 11:52:49;;;;;;;17.05;3.80;;;;;;;35.89;21.34;100399.30;1725600;82;21372;-93
2022/08/22 11:55:42;;;;;;;13.50;3.22;;;;;;;35.75;21.67;100395.39;1699744;82;20946;-95
2022/08/22 11:58:32;;;;;;;;;;;;;;;35.62;21.64;100395.28;1706269;83;21352;-93
2022/08/22 12:01:11;;;;;;;25.72;4.08;;;;;;;35.35;21.68;100391.30;1724663;82;21247;-93
2022/08/22 12:04:01;;;;;;;29.07;4.40;;;;;;;35.00;21.80;100402.20;1697768;83;20894;-93
2022/08/22 12:07:00;;;;;;;24.45;3.22;;;;;;;34.72;22.06;100404.67;1707240;82;20952;-93
2022/08/22 12:09:50;;;;;;;19.60;3.42;;;;;;;34.43;21.87;100398.91;1708651;81;20933;-95
2022/08/22 12:12:55;;;;;;;17.60;3.47;;;;;;;34.20;22.47;100406.01;1708320;80;20890;-95
2022/08/22 12:15:40;;;;;;;;;;;;;;;33.94;22.50;100413.00;1709734;83;21143;-92
2022/08/22 12:18:39;;;;;;;28.73;4.83;;;;;;;33.68;22.87;100404.47;1719744;83;20113;-95
2022/08/22 12:25:18;;;;;;;27.85;3.20;;;;;;;33.36;23.24;100415.95;1800341;79;22131;-91
2022/08/22 12:28:27;;;;;;;26.55;3.10;;;;;;;33.14;23.65;100417.77;1736801;82;21000;-92
2022/08/22 12:31:11;;;;;;;26.82;3.00;;;;;;;32.96;23.78;100423.70;1736229;82;21376;-93
2022/08/22 12:33:58;;;;;;;23.77;3.75;;;;;;;32.79;24.13;100410.62;1732144;82;21015;-92
2022/08/22 12:36:54;;;;;;;18.95;3.45;;;;;;;32.69;24.31;100415.89;1736415;82;20940;-90
2022/08/22 12:40:09;;;;;;;24.80;6.72;;;;;;;32.61;24.11;100409.75;1736649;82;21066;-92
2022/08/22 12:43:03;;;;;;;24.63;3.50;;;;;;;32.56;24.36;100412.39;1736229;82;21438;-91
2022/08/22 12:45:50;;;;;;;27.35;3.58;;;;;;;32.49;23.81;100415.76;1736297;82;20958;-94
2022/08/22 12:48:55;;;;;;;17.15;3.50;;;;;;;32.37;24.00;100414.96;1736194;82;21023;-91
2022/08/22 12:51:47;;;;;;;18.32;3.30;;;;;;;32.30;23.56;100419.17;1736481;82;21035;-91
2022/08/22 12:54:25;;;;;;;24.55;3.22;;;;;;;32.26;23.74;100418.54;1736333;82;21469;-91
2022/08/22 12:57:25;;;;;;;26.52;3.12;;;;;;;32.28;23.66;100414.52;1736256;82;20934;-91
2022/08/22 13:00:30;;;;;;;21.12;2.83;;;;;;;32.32;23.01;100416.23;1736509;82;22054;-94
2022/08/22 13:03:00;;;;;;;17.25;2.62;;;;;;;32.36;23.21;100425.54;1755947;81;20920;-91
2022/08/22 13:05:28;;;;;;;21.73;3.33;;;;;;;32.37;22.85;100423.10;1759465;81;20925;-92
2022/08/22 13:07:59;;;;;;;21.10;3.08;;;;;;;32.36;23.05;100430.97;1759864;81;20888;-92
2022/08/22 13:10:44;;;;;;;23.25;2.58;;;;;;;32.35;22.86;100432.87;1726675;81;20871;-92
2022/08/22 13:13:14;;;;;;;;;;;;;;;32.33;23.06;100435.00;1728593;82;20991;-92
2022/08/22 13:15:48;;;;;;;16.70;2.00;;;;;;;32.31;22.92;100428.16;1709341;84;20073;-91
2022/08/22 13:18:24;;;;;;;19.25;2.35;;;;;;;32.29;22.80;100435.72;1712096;84;20936;-93
2022/08/22 13:20:54;;;;;;;18.92;1.90;;;;;;;32.25;22.66;100435.91;1727312;83;20998;-92
2022/08/22 13:23:37;;;;;;;25.40;4.05;;;;;;;32.21;22.71;100435.55;1727910;83;21419;-91
2022/08/22 13:26:22;;;;;;;18.02;2.35;;;;;;;32.19;23.02;100436.31;1725723;82;21618;-92
2022/08/22 13:29:03;;;;;;;22.20;2.67;;;;;;;32.16;22.60;100425.41;1725442;83;20939;-93